createdAt,value
2022-11-03T00:02:08.094Z,10.48
2022-11-03T00:07:13.622Z,10.46
2022-11-03T00:12:19.136Z,10.44
2022-11-03T00:17:24.613Z,10.43
2022-11-03T00:22:31.815Z,10.41
2022-11-03T00:27:37.205Z,10.34
2022-11-03T00:32:42.595Z,10.27
2022-11-03T00:37:49.284Z,10.19
2022-11-03T00:42:54.668Z,10.12
2022-11-03T00:48:18.168Z,10.11
2022-11-03T00:53:23.755Z,10.11
2022-11-03T00:58:29.803Z,10.09
2022-11-03T01:03:37.493Z,10.12
2022-11-03T01:08:43.057Z,10.12
2022-11-03T01:13:48.584Z,10.12
2022-11-03T01:18:55.623Z,10.11
2022-11-03T01:24:05.698Z,10.16
2022-11-03T01:29:11.227Z,10.19
2022-11-03T01:34:18.838Z,10.18
2022-11-03T01:39:24.362Z,10.22
2022-11-03T01:44:32.791Z,10.23
2022-11-03T01:49:41.348Z,10.27
2022-11-03T01:54:49.713Z,10.27
2022-11-03T01:59:58.421Z,10.31
2022-11-03T02:05:06.094Z,10.33
2022-11-03T02:10:12.099Z,10.36
2022-11-03T02:15:20.022Z,10.41
2022-11-03T02:20:31.362Z,10.39
2022-11-03T02:25:48.494Z,10.40
2022-11-03T02:30:57.256Z,10.40
2022-11-03T02:36:12.015Z,10.41
2022-11-03T02:41:19.443Z,10.43
2022-11-03T02:46:27.387Z,10.44
2022-11-03T02:51:32.773Z,10.45
2022-11-03T02:56:41.291Z,10.42
2022-11-03T03:01:50.957Z,10.43
2022-11-03T03:07:04.537Z,10.41
2022-11-03T03:12:13.122Z,10.37
2022-11-03T03:17:21.615Z,10.33
2022-11-03T03:22:35.795Z,10.37
2022-11-03T03:27:45.832Z,10.30
2022-11-03T03:32:53.555Z,10.32
2022-11-03T03:38:01.985Z,10.26
2022-11-03T03:43:10.847Z,10.23
2022-11-03T03:48:16.561Z,10.24
2022-11-03T03:53:21.997Z,10.30
2022-11-03T03:58:27.535Z,10.33
2022-11-03T04:03:33.019Z,10.43
2022-11-03T04:08:38.609Z,10.54
2022-11-03T04:14:02.154Z,10.64
2022-11-03T04:19:29.455Z,10.68
2022-11-03T04:24:35.087Z,10.71
2022-11-03T04:29:40.708Z,10.70
2022-11-03T04:34:49.736Z,10.71
2022-11-03T04:40:01.443Z,10.78
2022-11-03T04:45:10.230Z,10.81
2022-11-03T04:50:24.311Z,10.86
2022-11-03T04:55:29.838Z,10.90
2022-11-03T05:00:35.313Z,10.93
2022-11-03T05:05:40.777Z,10.95
2022-11-03T05:10:47.217Z,11.00
2022-11-03T05:15:55.598Z,10.97
2022-11-03T05:21:04.362Z,10.90
2022-11-03T05:26:29.251Z,10.87
2022-11-03T05:31:37.845Z,10.82
2022-11-03T05:36:44.958Z,10.78
2022-11-03T05:41:50.860Z,10.78
2022-11-03T05:47:03.143Z,10.71
2022-11-03T05:52:10.796Z,10.68
2022-11-03T05:57:17.923Z,10.60
2022-11-03T06:02:41.382Z,10.59
2022-11-03T06:07:47.963Z,10.51
2022-11-03T06:12:59.028Z,10.46
2022-11-03T06:18:19.092Z,10.48
2022-11-03T06:23:24.811Z,10.51
2022-11-03T06:28:36.887Z,10.47
2022-11-03T06:33:44.175Z,10.46
2022-11-03T06:38:55.878Z,10.47
2022-11-03T06:44:06.848Z,10.57
2022-11-03T06:49:34.762Z,10.55
2022-11-03T06:54:40.568Z,10.59
2022-11-03T06:59:46.768Z,10.66
2022-11-03T07:04:52.564Z,10.69
2022-11-03T07:09:58.109Z,10.74
2022-11-03T07:20:13.124Z,10.89
2022-11-03T07:25:21.345Z,11.03
2022-11-03T07:30:29.920Z,11.11
2022-11-03T07:36:08.940Z,11.22
2022-11-03T07:40:49.123Z,11.30
2022-11-03T07:45:57.224Z,11.43
2022-11-03T07:51:06.338Z,11.43
2022-11-03T07:56:26.794Z,11.51
2022-11-03T08:01:50.601Z,11.54
2022-11-03T08:06:56.330Z,11.68
2022-11-03T08:12:01.877Z,11.81
2022-11-03T08:17:07.779Z,11.92
2022-11-03T08:22:13.403Z,12.09
2022-11-03T08:27:19.803Z,12.21
2022-11-03T08:32:25.256Z,12.36
2022-11-03T08:37:30.777Z,12.48
2022-11-03T08:42:36.222Z,12.57
2022-11-03T08:47:42.441Z,12.69
2022-11-03T08:52:48.216Z,12.70
2022-11-03T08:57:54.305Z,12.74
2022-11-03T09:03:00.888Z,12.86
2022-11-03T09:13:14.265Z,13.07
2022-11-03T09:18:19.787Z,13.13
2022-11-03T09:23:26.251Z,13.20
2022-11-03T09:28:31.630Z,13.27
2022-11-03T09:33:37.244Z,13.35
2022-11-03T09:38:42.712Z,13.43
2022-11-03T09:43:50.114Z,13.47
2022-11-03T09:48:56.702Z,13.53
2022-11-03T09:54:05.562Z,13.60
2022-11-03T09:59:22.785Z,13.69
2022-11-03T10:04:31.351Z,13.65
2022-11-03T10:09:37.184Z,13.76
2022-11-03T10:14:46.146Z,13.78
2022-11-03T10:19:54.980Z,13.88
2022-11-03T10:25:39.619Z,13.93
2022-11-03T10:36:18.370Z,14.09
2022-11-03T10:41:31.674Z,14.20
2022-11-03T10:46:50.796Z,14.31
2022-11-03T10:51:47.711Z,14.42
2022-11-03T10:56:54.418Z,14.42
2022-11-03T11:02:01.753Z,14.56
2022-11-03T11:07:23.447Z,14.71
2022-11-03T11:12:29.425Z,14.83
2022-11-03T11:17:43.874Z,14.77
2022-11-03T11:22:50.905Z,14.92
2022-11-03T11:27:58.608Z,15.01
2022-11-03T11:33:16.111Z,15.04
2022-11-03T11:38:46.983Z,15.16
2022-11-03T11:43:52.462Z,15.29
2022-11-03T11:49:06.943Z,15.44
2022-11-03T11:54:18.741Z,15.47
2022-11-03T11:59:26.238Z,15.42
2022-11-03T12:04:33.416Z,15.39
2022-11-03T12:09:40.477Z,15.42
2022-11-03T12:14:46.011Z,15.49
2022-11-03T12:19:53.245Z,15.50
2022-11-03T12:25:01.190Z,15.51
2022-11-03T12:30:09.790Z,15.58
2022-11-03T12:35:15.641Z,16.20
2022-11-03T12:40:21.232Z,15.76
2022-11-03T12:45:26.615Z,15.70
2022-11-03T12:50:32.073Z,15.66
2022-11-03T12:55:39.359Z,15.63
2022-11-03T13:00:49.935Z,15.71
2022-11-03T13:05:51.915Z,15.69
2022-11-03T13:10:58.701Z,15.64
2022-11-03T13:16:04.148Z,15.66
2022-11-03T13:21:09.671Z,15.71
2022-11-03T13:26:15.277Z,15.74
2022-11-03T13:31:20.737Z,15.75
2022-11-03T13:36:26.775Z,15.71
2022-11-03T13:41:33.608Z,15.83
2022-11-03T13:46:39.165Z,15.82
2022-11-03T13:51:44.556Z,15.73
2022-11-03T14:07:04.498Z,15.53
2022-11-03T14:12:27.806Z,15.42
2022-11-03T14:17:33.434Z,15.34
2022-11-03T14:22:39.874Z,15.29
2022-11-03T14:27:45.350Z,15.18
2022-11-03T14:32:54.193Z,15.16
2022-11-03T14:37:58.285Z,15.05
2022-11-03T14:43:04.131Z,14.96
2022-11-03T14:48:10.226Z,14.88
2022-11-03T14:53:16.045Z,14.93
2022-11-03T14:58:21.677Z,14.94
2022-11-03T15:03:27.349Z,14.81
2022-11-03T15:08:32.882Z,14.74
2022-11-03T15:13:44.045Z,14.60
2022-11-03T15:18:46.439Z,14.46
2022-11-03T15:28:59.257Z,14.28
2022-11-03T15:34:07.798Z,14.19
2022-11-03T15:39:13.647Z,14.13
2022-11-03T15:44:20.264Z,14.05
2022-11-03T15:49:26.439Z,13.94
2022-11-03T15:54:31.985Z,13.86
2022-11-03T15:59:38.476Z,13.82
2022-11-03T16:04:44.367Z,13.77
2022-11-03T16:09:49.953Z,13.70
2022-11-03T16:14:56.062Z,13.62
2022-11-03T16:20:01.646Z,13.55
2022-11-03T16:25:12.735Z,13.54
2022-11-03T16:30:16.293Z,13.54
2022-11-03T16:35:22.445Z,13.50
2022-11-03T16:40:28.170Z,13.42
2022-11-03T16:45:37.651Z,13.39
2022-11-03T16:50:44.495Z,13.30
2022-11-03T16:55:49.746Z,13.22
2022-11-03T17:00:55.491Z,13.18
2022-11-03T17:06:01.313Z,13.11
2022-11-03T17:11:08.437Z,13.02
2022-11-03T17:16:13.883Z,13.01
2022-11-03T17:21:19.342Z,12.97
2022-11-03T17:26:27.858Z,12.87
2022-11-03T17:31:33.378Z,12.81
2022-11-03T17:36:38.901Z,12.72
2022-11-03T17:41:44.454Z,12.65
2022-11-03T17:46:49.992Z,12.67
2022-11-03T17:51:55.610Z,12.63
2022-11-03T17:57:02.844Z,12.57
2022-11-03T18:02:11.635Z,12.57
2022-11-03T18:07:28.586Z,12.53
2022-11-03T18:12:57.942Z,12.58
2022-11-03T18:18:05.743Z,12.97
2022-11-03T18:23:17.380Z,12.70
2022-11-03T18:28:23.109Z,12.59
2022-11-03T18:33:32.375Z,12.64
2022-11-03T18:38:39.951Z,12.62
2022-11-03T18:43:45.651Z,12.57
2022-11-03T18:48:51.253Z,12.48
2022-11-03T18:53:56.879Z,12.49
2022-11-03T18:59:02.599Z,12.39
2022-11-03T19:04:12.749Z,12.43
2022-11-03T19:09:21.430Z,12.34
2022-11-03T19:14:32.983Z,12.32
2022-11-03T19:19:38.465Z,12.86
2022-11-03T19:24:47.169Z,12.52
2022-11-03T19:29:53.198Z,12.40
2022-11-03T19:35:02.798Z,12.38
2022-11-03T19:40:10.746Z,12.32
2022-11-03T19:45:18.779Z,12.25
2022-11-03T19:50:30.401Z,12.24
2022-11-03T19:55:39.062Z,12.25
2022-11-03T20:00:45.579Z,12.14
2022-11-03T20:05:54.135Z,12.09
2022-11-03T20:11:00.069Z,12.09
2022-11-03T20:16:09.421Z,12.13
2022-11-03T20:21:17.832Z,12.10
2022-11-03T20:26:25.701Z,12.05
2022-11-03T20:31:31.257Z,12.04
2022-11-03T20:36:36.809Z,12.07
2022-11-03T20:41:45.233Z,12.07
2022-11-03T20:46:50.801Z,12.11
2022-11-03T20:51:56.362Z,12.05
2022-11-03T20:57:01.835Z,12.00
2022-11-03T21:02:14.473Z,11.93
2022-11-03T21:07:20.359Z,11.94
2022-11-03T21:12:25.908Z,11.87
2022-11-03T21:17:49.651Z,11.81
2022-11-03T21:22:55.203Z,11.82
2022-11-03T21:28:00.770Z,11.81
2022-11-03T21:33:06.476Z,11.83
2022-11-03T21:38:12.669Z,11.76
2022-11-03T21:43:37.577Z,11.81
2022-11-03T21:48:59.973Z,11.85
2022-11-03T21:54:05.785Z,11.81
2022-11-03T21:59:11.400Z,11.75
2022-11-03T22:04:17.771Z,11.83
2022-11-03T22:09:24.293Z,11.73
2022-11-03T22:14:31.493Z,11.75
2022-11-03T22:19:55.934Z,11.73
2022-11-03T22:25:20.204Z,11.63
2022-11-03T22:30:43.802Z,11.64
2022-11-03T22:36:10.421Z,11.63
2022-11-03T22:41:34.015Z,11.61
2022-11-03T22:46:39.713Z,11.58
2022-11-03T22:51:45.184Z,11.47
2022-11-03T22:56:50.540Z,11.50
2022-11-03T23:01:56.216Z,11.51
2022-11-03T23:07:01.810Z,11.50
2022-11-03T23:12:07.577Z,11.51
2022-11-03T23:17:13.179Z,11.47
2022-11-03T23:22:18.633Z,11.54
2022-11-03T23:27:24.111Z,11.52
2022-11-03T23:32:29.710Z,11.54
2022-11-03T23:37:35.241Z,11.53
2022-11-03T23:42:40.765Z,11.51
2022-11-03T23:48:04.269Z,11.51
2022-11-03T23:53:09.796Z,11.52
2022-11-03T23:58:21.716Z,11.53
